sensor_id;sensor_type;location;lat;lon;timestamp;P1;durP1;ratioP1;P2;durP2;ratioP2
2161;SDS011;1087;50.226;8.682;2022-10-16T00:00:52;3.90;;;2.90;;
2161;SDS011;1087;50.226;8.682;2022-10-16T00:03:17;4.17;;;2.80;;
2161;SDS011;1087;50.226;8.682;2022-10-16T00:05:43;2.93;;;2.73;;
2161;SDS011;1087;50.226;8.682;2022-10-16T00:08:10;3.30;;;3.00;;
2161;SDS011;1087;50.226;8.682;2022-10-16T00:10:36;3.20;;;2.53;;
2161;SDS011;1087;50.226;8.682;2022-10-16T00:13:03;2.30;;;2.10;;
2161;SDS011;1087;50.226;8.682;2022-10-16T00:15:28;2.73;;;2.03;;
2161;SDS011;1087;50.226;8.682;2022-10-16T00:17:54;4.73;;;2.80;;
2161;SDS011;1087;50.226;8.682;2022-10-16T00:20:20;4.03;;;2.07;;
2161;SDS011;1087;50.226;8.682;2022-10-16T00:22:45;3.43;;;2.37;;
2161;SDS011;1087;50.226;8.682;2022-10-16T00:25:11;2.57;;;2.37;;
2161;SDS011;1087;50.226;8.682;2022-10-16T00:27:36;2.33;;;1.97;;
2161;SDS011;1087;50.226;8.682;2022-10-16T00:30:02;2.53;;;2.33;;
2161;SDS011;1087;50.226;8.682;2022-10-16T00:32:28;2.60;;;2.40;;
2161;SDS011;1087;50.226;8.682;2022-10-16T00:34:53;3.17;;;2.87;;
2161;SDS011;1087;50.226;8.682;2022-10-16T00:37:19;3.40;;;2.93;;
2161;SDS011;1087;50.226;8.682;2022-10-16T00:39:45;3.03;;;2.73;;
2161;SDS011;1087;50.226;8.682;2022-10-16T00:42:14;2.90;;;2.70;;
2161;SDS011;1087;50.226;8.682;2022-10-16T00:44:43;3.13;;;2.83;;
2161;SDS011;1087;50.226;8.682;2022-10-16T00:47:57;4.70;;;3.00;;
2161;SDS011;1087;50.226;8.682;2022-10-16T00:50:27;6.37;;;3.13;;
2161;SDS011;1087;50.226;8.682;2022-10-16T00:52:54;3.97;;;3.57;;
2161;SDS011;1087;50.226;8.682;2022-10-16T00:55:21;3.47;;;3.17;;
2161;SDS011;1087;50.226;8.682;2022-10-16T00:57:48;4.80;;;4.20;;
2161;SDS011;1087;50.226;8.682;2022-10-16T01:00:16;6.37;;;4.00;;
2161;SDS011;1087;50.226;8.682;2022-10-16T01:02:44;3.73;;;3.43;;
2161;SDS011;1087;50.226;8.682;2022-10-16T01:05:16;4.10;;;3.80;;
2161;SDS011;1087;50.226;8.682;2022-10-16T01:12:59;5.03;;;4.00;;
2161;SDS011;1087;50.226;8.682;2022-10-16T01:15:31;4.47;;;3.83;;
2161;SDS011;1087;50.226;8.682;2022-10-16T01:20:58;5.80;;;5.20;;
2161;SDS011;1087;50.226;8.682;2022-10-16T01:23:31;8.37;;;4.50;;
2161;SDS011;1087;50.226;8.682;2022-10-16T01:32:55;7.80;;;6.33;;
2161;SDS011;1087;50.226;8.682;2022-10-16T01:35:06;8.50;;;6.70;;
2161;SDS011;1087;50.226;8.682;2022-10-16T01:37:35;6.53;;;5.93;;
2161;SDS011;1087;50.226;8.682;2022-10-16T01:40:05;8.47;;;6.80;;
2161;SDS011;1087;50.226;8.682;2022-10-16T01:42:36;10.10;;;7.80;;
2161;SDS011;1087;50.226;8.682;2022-10-16T01:45:07;8.37;;;7.40;;
2161;SDS011;1087;50.226;8.682;2022-10-16T01:47:36;9.93;;;8.93;;
2161;SDS011;1087;50.226;8.682;2022-10-16T01:50:03;11.63;;;8.70;;
2161;SDS011;1087;50.226;8.682;2022-10-16T01:52:31;9.17;;;8.17;;
2161;SDS011;1087;50.226;8.682;2022-10-16T01:55:04;9.83;;;8.93;;
2161;SDS011;1087;50.226;8.682;2022-10-16T01:57:36;9.80;;;8.37;;
2161;SDS011;1087;50.226;8.682;2022-10-16T02:00:07;11.57;;;9.17;;
2161;SDS011;1087;50.226;8.682;2022-10-16T02:02:36;10.23;;;9.00;;
2161;SDS011;1087;50.226;8.682;2022-10-16T02:05:10;13.30;;;10.10;;
2161;SDS011;1087;50.226;8.682;2022-10-16T02:07:44;12.80;;;10.30;;
2161;SDS011;1087;50.226;8.682;2022-10-16T02:10:10;11.70;;;10.50;;
2161;SDS011;1087;50.226;8.682;2022-10-16T02:12:36;11.77;;;10.07;;
2161;SDS011;1087;50.226;8.682;2022-10-16T02:15:05;10.47;;;9.37;;
2161;SDS011;1087;50.226;8.682;2022-10-16T02:17:32;12.27;;;9.63;;
2161;SDS011;1087;50.226;8.682;2022-10-16T02:19:57;13.27;;;10.90;;
2161;SDS011;1087;50.226;8.682;2022-10-16T02:22:30;10.63;;;9.63;;
2161;SDS011;1087;50.226;8.682;2022-10-16T02:25:26;11.17;;;10.07;;
2161;SDS011;1087;50.226;8.682;2022-10-16T02:27:57;10.83;;;9.47;;
2161;SDS011;1087;50.226;8.682;2022-10-16T02:32:55;10.73;;;9.63;;
2161;SDS011;1087;50.226;8.682;2022-10-16T02:35:24;11.20;;;9.13;;
2161;SDS011;1087;50.226;8.682;2022-10-16T02:37:52;12.70;;;11.40;;
2161;SDS011;1087;50.226;8.682;2022-10-16T02:40:18;10.20;;;9.27;;
2161;SDS011;1087;50.226;8.682;2022-10-16T02:42:44;11.87;;;10.67;;
2161;SDS011;1087;50.226;8.682;2022-10-16T02:45:14;10.83;;;9.73;;
2161;SDS011;1087;50.226;8.682;2022-10-16T02:47:40;11.20;;;10.13;;
2161;SDS011;1087;50.226;8.682;2022-10-16T02:50:06;12.30;;;10.47;;
2161;SDS011;1087;50.226;8.682;2022-10-16T02:52:31;15.87;;;11.87;;
2161;SDS011;1087;50.226;8.682;2022-10-16T02:54:57;13.70;;;10.93;;
2161;SDS011;1087;50.226;8.682;2022-10-16T02:57:22;12.80;;;11.17;;
2161;SDS011;1087;50.226;8.682;2022-10-16T02:59:48;12.20;;;10.97;;
2161;SDS011;1087;50.226;8.682;2022-10-16T03:02:13;11.53;;;10.33;;
2161;SDS011;1087;50.226;8.682;2022-10-16T03:04:39;13.10;;;11.00;;
2161;SDS011;1087;50.226;8.682;2022-10-16T03:07:04;12.67;;;10.37;;
2161;SDS011;1087;50.226;8.682;2022-10-16T03:09:30;11.43;;;10.43;;
2161;SDS011;1087;50.226;8.682;2022-10-16T03:11:55;10.53;;;9.63;;
2161;SDS011;1087;50.226;8.682;2022-10-16T03:14:21;8.90;;;7.97;;
2161;SDS011;1087;50.226;8.682;2022-10-16T03:16:46;8.57;;;6.27;;
2161;SDS011;1087;50.226;8.682;2022-10-16T03:19:12;5.70;;;5.27;;
2161;SDS011;1087;50.226;8.682;2022-10-16T03:21:37;5.83;;;5.33;;
2161;SDS011;1087;50.226;8.682;2022-10-16T03:24:03;5.10;;;4.30;;
2161;SDS011;1087;50.226;8.682;2022-10-16T03:26:29;4.27;;;3.97;;
2161;SDS011;1087;50.226;8.682;2022-10-16T03:28:54;6.00;;;3.93;;
2161;SDS011;1087;50.226;8.682;2022-10-16T03:31:20;4.23;;;3.70;;
2161;SDS011;1087;50.226;8.682;2022-10-16T03:33:45;4.23;;;3.93;;
2161;SDS011;1087;50.226;8.682;2022-10-16T03:36:11;6.80;;;3.53;;
2161;SDS011;1087;50.226;8.682;2022-10-16T03:38:36;3.80;;;3.43;;
2161;SDS011;1087;50.226;8.682;2022-10-16T03:41:02;4.37;;;3.70;;
2161;SDS011;1087;50.226;8.682;2022-10-16T03:43:28;4.23;;;3.80;;
2161;SDS011;1087;50.226;8.682;2022-10-16T03:45:54;5.53;;;3.60;;
2161;SDS011;1087;50.226;8.682;2022-10-16T03:48:19;4.40;;;3.73;;
2161;SDS011;1087;50.226;8.682;2022-10-16T03:50:45;4.30;;;3.23;;
2161;SDS011;1087;50.226;8.682;2022-10-16T03:53:13;4.97;;;4.00;;
2161;SDS011;1087;50.226;8.682;2022-10-16T03:55:40;3.97;;;3.53;;
2161;SDS011;1087;50.226;8.682;2022-10-16T03:58:07;4.07;;;3.77;;
2161;SDS011;1087;50.226;8.682;2022-10-16T04:00:32;2.70;;;2.50;;
2161;SDS011;1087;50.226;8.682;2022-10-16T04:02:59;3.40;;;3.10;;
2161;SDS011;1087;50.226;8.682;2022-10-16T04:05:24;3.97;;;3.57;;
2161;SDS011;1087;50.226;8.682;2022-10-16T04:07:50;2.60;;;2.40;;
2161;SDS011;1087;50.226;8.682;2022-10-16T04:10:15;3.20;;;2.90;;
2161;SDS011;1087;50.226;8.682;2022-10-16T04:12:41;3.33;;;2.87;;
2161;SDS011;1087;50.226;8.682;2022-10-16T04:15:07;3.27;;;3.07;;
2161;SDS011;1087;50.226;8.682;2022-10-16T04:17:33;3.37;;;3.13;;
2161;SDS011;1087;50.226;8.682;2022-10-16T04:19:58;4.03;;;3.73;;
2161;SDS011;1087;50.226;8.682;2022-10-16T04:22:24;3.97;;;3.67;;
2161;SDS011;1087;50.226;8.682;2022-10-16T04:24:49;3.57;;;2.83;;
2161;SDS011;1087;50.226;8.682;2022-10-16T04:27:15;2.60;;;2.40;;
2161;SDS011;1087;50.226;8.682;2022-10-16T04:29:41;3.10;;;2.80;;
2161;SDS011;1087;50.226;8.682;2022-10-16T04:32:07;3.27;;;2.97;;
2161;SDS011;1087;50.226;8.682;2022-10-16T04:34:36;2.90;;;2.70;;
2161;SDS011;1087;50.226;8.682;2022-10-16T04:37:03;4.37;;;2.80;;
2161;SDS011;1087;50.226;8.682;2022-10-16T04:39:28;3.77;;;2.50;;
2161;SDS011;1087;50.226;8.682;2022-10-16T04:41:54;4.13;;;2.97;;
2161;SDS011;1087;50.226;8.682;2022-10-16T04:44:19;4.90;;;2.97;;
2161;SDS011;1087;50.226;8.682;2022-10-16T04:46:45;3.43;;;3.00;;
2161;SDS011;1087;50.226;8.682;2022-10-16T04:49:10;3.17;;;2.97;;
2161;SDS011;1087;50.226;8.682;2022-10-16T04:51:36;3.30;;;3.03;;
2161;SDS011;1087;50.226;8.682;2022-10-16T04:54:01;2.97;;;2.77;;
2161;SDS011;1087;50.226;8.682;2022-10-16T04:56:27;4.20;;;2.90;;
2161;SDS011;1087;50.226;8.682;2022-10-16T04:58:52;3.50;;;3.10;;
2161;SDS011;1087;50.226;8.682;2022-10-16T05:01:18;3.40;;;3.00;;
2161;SDS011;1087;50.226;8.682;2022-10-16T05:03:43;3.13;;;2.83;;
2161;SDS011;1087;50.226;8.682;2022-10-16T05:06:09;3.03;;;2.83;;
2161;SDS011;1087;50.226;8.682;2022-10-16T05:08:34;3.30;;;3.10;;
2161;SDS011;1087;50.226;8.682;2022-10-16T05:11:00;3.80;;;3.30;;
2161;SDS011;1087;50.226;8.682;2022-10-16T05:13:26;4.00;;;3.60;;
2161;SDS011;1087;50.226;8.682;2022-10-16T05:15:52;3.33;;;3.00;;
2161;SDS011;1087;50.226;8.682;2022-10-16T05:18:17;3.70;;;3.40;;
2161;SDS011;1087;50.226;8.682;2022-10-16T05:20:43;3.70;;;3.40;;
2161;SDS011;1087;50.226;8.682;2022-10-16T05:23:08;3.27;;;2.97;;
2161;SDS011;1087;50.226;8.682;2022-10-16T05:25:37;4.10;;;3.10;;
2161;SDS011;1087;50.226;8.682;2022-10-16T05:28:02;2.93;;;2.70;;
2161;SDS011;1087;50.226;8.682;2022-10-16T05:30:28;3.23;;;2.90;;
2161;SDS011;1087;50.226;8.682;2022-10-16T05:32:54;2.90;;;2.70;;
2161;SDS011;1087;50.226;8.682;2022-10-16T05:35:20;4.47;;;3.40;;
2161;SDS011;1087;50.226;8.682;2022-10-16T05:37:46;3.20;;;2.87;;
2161;SDS011;1087;50.226;8.682;2022-10-16T05:40:12;3.13;;;2.93;;
2161;SDS011;1087;50.226;8.682;2022-10-16T05:42:39;3.70;;;3.40;;
2161;SDS011;1087;50.226;8.682;2022-10-16T05:45:05;3.60;;;3.30;;
2161;SDS011;1087;50.226;8.682;2022-10-16T05:47:31;3.57;;;3.27;;
2161;SDS011;1087;50.226;8.682;2022-10-16T05:49:57;3.50;;;3.17;;
2161;SDS011;1087;50.226;8.682;2022-10-16T05:52:23;3.20;;;2.90;;
2161;SDS011;1087;50.226;8.682;2022-10-16T05:54:48;3.50;;;3.20;;
2161;SDS011;1087;50.226;8.682;2022-10-16T05:57:14;3.20;;;3.00;;
2161;SDS011;1087;50.226;8.682;2022-10-16T05:59:40;3.70;;;3.40;;
2161;SDS011;1087;50.226;8.682;2022-10-16T06:02:05;4.00;;;2.93;;
2161;SDS011;1087;50.226;8.682;2022-10-16T06:04:31;3.37;;;3.17;;
2161;SDS011;1087;50.226;8.682;2022-10-16T06:06:59;3.83;;;3.53;;
2161;SDS011;1087;50.226;8.682;2022-10-16T06:09:27;4.67;;;3.80;;
2161;SDS011;1087;50.226;8.682;2022-10-16T06:11:53;4.20;;;3.80;;
2161;SDS011;1087;50.226;8.682;2022-10-16T06:14:18;5.13;;;3.60;;
2161;SDS011;1087;50.226;8.682;2022-10-16T06:16:44;4.60;;;4.27;;
2161;SDS011;1087;50.226;8.682;2022-10-16T06:19:09;3.63;;;3.10;;
2161;SDS011;1087;50.226;8.682;2022-10-16T06:21:35;4.07;;;3.77;;
2161;SDS011;1087;50.226;8.682;2022-10-16T06:24:00;4.10;;;3.77;;
2161;SDS011;1087;50.226;8.682;2022-10-16T06:26:27;4.90;;;4.37;;
2161;SDS011;1087;50.226;8.682;2022-10-16T06:28:55;4.27;;;3.97;;
2161;SDS011;1087;50.226;8.682;2022-10-16T06:31:22;3.43;;;3.13;;
2161;SDS011;1087;50.226;8.682;2022-10-16T06:33:52;3.70;;;3.10;;
2161;SDS011;1087;50.226;8.682;2022-10-16T06:36:18;3.93;;;3.53;;
2161;SDS011;1087;50.226;8.682;2022-10-16T06:38:45;3.33;;;2.73;;
2161;SDS011;1087;50.226;8.682;2022-10-16T06:41:12;6.57;;;3.27;;
2161;SDS011;1087;50.226;8.682;2022-10-16T06:43:40;3.50;;;3.13;;
2161;SDS011;1087;50.226;8.682;2022-10-16T06:46:06;3.40;;;3.10;;
2161;SDS011;1087;50.226;8.682;2022-10-16T06:48:34;3.90;;;3.60;;
2161;SDS011;1087;50.226;8.682;2022-10-16T06:51:09;3.43;;;3.10;;
2161;SDS011;1087;50.226;8.682;2022-10-16T06:53:41;2.77;;;2.57;;
2161;SDS011;1087;50.226;8.682;2022-10-16T06:56:15;3.27;;;2.97;;
2161;SDS011;1087;50.226;8.682;2022-10-16T06:58:42;3.03;;;2.83;;
2161;SDS011;1087;50.226;8.682;2022-10-16T07:01:09;4.73;;;3.30;;
2161;SDS011;1087;50.226;8.682;2022-10-16T07:03:36;3.17;;;2.87;;
2161;SDS011;1087;50.226;8.682;2022-10-16T07:06:03;3.30;;;2.90;;
2161;SDS011;1087;50.226;8.682;2022-10-16T07:08:31;3.60;;;2.73;;
2161;SDS011;1087;50.226;8.682;2022-10-16T07:10:58;3.10;;;2.90;;
2161;SDS011;1087;50.226;8.682;2022-10-16T07:13:28;3.60;;;3.30;;
2161;SDS011;1087;50.226;8.682;2022-10-16T07:15:53;2.80;;;2.60;;
2161;SDS011;1087;50.226;8.682;2022-10-16T07:18:19;3.90;;;3.43;;
2161;SDS011;1087;50.226;8.682;2022-10-16T07:20:44;3.40;;;3.10;;
2161;SDS011;1087;50.226;8.682;2022-10-16T07:23:10;3.90;;;3.60;;
2161;SDS011;1087;50.226;8.682;2022-10-16T07:25:35;4.40;;;3.37;;
2161;SDS011;1087;50.226;8.682;2022-10-16T07:28:01;4.33;;;3.20;;
2161;SDS011;1087;50.226;8.682;2022-10-16T07:30:26;3.60;;;3.07;;
2161;SDS011;1087;50.226;8.682;2022-10-16T07:32:52;3.10;;;2.80;;
2161;SDS011;1087;50.226;8.682;2022-10-16T07:35:17;3.10;;;2.80;;
2161;SDS011;1087;50.226;8.682;2022-10-16T07:37:46;3.63;;;3.33;;
2161;SDS011;1087;50.226;8.682;2022-10-16T07:40:12;5.17;;;3.60;;
2161;SDS011;1087;50.226;8.682;2022-10-16T07:42:37;3.10;;;2.90;;
2161;SDS011;1087;50.226;8.682;2022-10-16T07:45:03;3.10;;;2.83;;
2161;SDS011;1087;50.226;8.682;2022-10-16T07:47:29;3.20;;;2.80;;
2161;SDS011;1087;50.226;8.682;2022-10-16T07:49:55;5.30;;;3.33;;
2161;SDS011;1087;50.226;8.682;2022-10-16T07:52:20;3.80;;;3.50;;
2161;SDS011;1087;50.226;8.682;2022-10-16T07:54:46;3.47;;;3.17;;
2161;SDS011;1087;50.226;8.682;2022-10-16T07:57:11;3.40;;;3.10;;
2161;SDS011;1087;50.226;8.682;2022-10-16T07:59:37;4.20;;;3.37;;
2161;SDS011;1087;50.226;8.682;2022-10-16T08:02:02;4.80;;;2.80;;
2161;SDS011;1087;50.226;8.682;2022-10-16T08:04:28;4.10;;;3.57;;
2161;SDS011;1087;50.226;8.682;2022-10-16T08:06:53;4.10;;;3.80;;
2161;SDS011;1087;50.226;8.682;2022-10-16T08:09:19;3.13;;;2.83;;
2161;SDS011;1087;50.226;8.682;2022-10-16T08:11:45;3.93;;;3.57;;
2161;SDS011;1087;50.226;8.682;2022-10-16T08:14:10;5.90;;;4.03;;
2161;SDS011;1087;50.226;8.682;2022-10-16T08:16:36;4.57;;;4.17;;
2161;SDS011;1087;50.226;8.682;2022-10-16T08:19:01;5.40;;;3.80;;
2161;SDS011;1087;50.226;8.682;2022-10-16T08:21:27;3.70;;;3.40;;
2161;SDS011;1087;50.226;8.682;2022-10-16T08:23:53;4.47;;;3.97;;
2161;SDS011;1087;50.226;8.682;2022-10-16T08:26:19;4.97;;;4.50;;
2161;SDS011;1087;50.226;8.682;2022-10-16T08:28:45;5.40;;;4.43;;
2161;SDS011;1087;50.226;8.682;2022-10-16T08:31:12;4.63;;;4.23;;
2161;SDS011;1087;50.226;8.682;2022-10-16T08:33:40;4.97;;;4.20;;
2161;SDS011;1087;50.226;8.682;2022-10-16T08:36:06;10.70;;;8.07;;
2161;SDS011;1087;50.226;8.682;2022-10-16T08:38:32;8.33;;;6.90;;
2161;SDS011;1087;50.226;8.682;2022-10-16T08:46:33;5.50;;;4.90;;
2161;SDS011;1087;50.226;8.682;2022-10-16T08:49:14;4.27;;;3.97;;
2161;SDS011;1087;50.226;8.682;2022-10-16T08:51:40;5.13;;;4.63;;
2161;SDS011;1087;50.226;8.682;2022-10-16T08:54:12;5.33;;;4.50;;
2161;SDS011;1087;50.226;8.682;2022-10-16T08:56:48;5.17;;;4.67;;
2161;SDS011;1087;50.226;8.682;2022-10-16T08:59:13;5.80;;;5.30;;
2161;SDS011;1087;50.226;8.682;2022-10-16T09:01:41;8.17;;;4.93;;
2161;SDS011;1087;50.226;8.682;2022-10-16T09:07:13;7.20;;;5.50;;
2161;SDS011;1087;50.226;8.682;2022-10-16T09:12:36;5.77;;;5.27;;
2161;SDS011;1087;50.226;8.682;2022-10-16T09:15:29;6.87;;;6.17;;
2161;SDS011;1087;50.226;8.682;2022-10-16T09:23:50;7.40;;;6.63;;
2161;SDS011;1087;50.226;8.682;2022-10-16T09:26:16;8.63;;;6.10;;
2161;SDS011;1087;50.226;8.682;2022-10-16T09:28:44;7.13;;;6.43;;
2161;SDS011;1087;50.226;8.682;2022-10-16T09:31:17;6.33;;;5.47;;
2161;SDS011;1087;50.226;8.682;2022-10-16T09:33:47;6.80;;;5.90;;
2161;SDS011;1087;50.226;8.682;2022-10-16T09:36:16;5.90;;;5.30;;
2161;SDS011;1087;50.226;8.682;2022-10-16T09:38:42;5.03;;;4.63;;
2161;SDS011;1087;50.226;8.682;2022-10-16T09:41:18;6.70;;;5.30;;
2161;SDS011;1087;50.226;8.682;2022-10-16T09:46:29;5.83;;;4.70;;
2161;SDS011;1087;50.226;8.682;2022-10-16T09:49:00;6.07;;;4.47;;
2161;SDS011;1087;50.226;8.682;2022-10-16T09:51:32;5.80;;;5.30;;
2161;SDS011;1087;50.226;8.682;2022-10-16T09:56:35;8.83;;;5.60;;
2161;SDS011;1087;50.226;8.682;2022-10-16T09:59:14;5.67;;;4.70;;
2161;SDS011;1087;50.226;8.682;2022-10-16T10:04:15;5.50;;;4.90;;
2161;SDS011;1087;50.226;8.682;2022-10-16T10:06:46;4.63;;;4.33;;
2161;SDS011;1087;50.226;8.682;2022-10-16T10:09:17;5.27;;;4.87;;
2161;SDS011;1087;50.226;8.682;2022-10-16T10:11:55;5.67;;;5.17;;
2161;SDS011;1087;50.226;8.682;2022-10-16T10:14:34;5.63;;;5.13;;
2161;SDS011;1087;50.226;8.682;2022-10-16T10:17:10;5.60;;;5.10;;
2161;SDS011;1087;50.226;8.682;2022-10-16T10:22:30;4.90;;;4.50;;
2161;SDS011;1087;50.226;8.682;2022-10-16T10:30:44;6.20;;;5.60;;
2161;SDS011;1087;50.226;8.682;2022-10-16T10:33:27;5.20;;;4.70;;
2161;SDS011;1087;50.226;8.682;2022-10-16T10:36:15;4.40;;;4.00;;
2161;SDS011;1087;50.226;8.682;2022-10-16T10:39:03;4.37;;;3.63;;
2161;SDS011;1087;50.226;8.682;2022-10-16T10:50:06;4.80;;;3.70;;
2161;SDS011;1087;50.226;8.682;2022-10-16T10:52:41;3.93;;;3.63;;
2161;SDS011;1087;50.226;8.682;2022-10-16T10:55:26;4.67;;;4.27;;
2161;SDS011;1087;50.226;8.682;2022-10-16T11:03:25;4.40;;;4.00;;
2161;SDS011;1087;50.226;8.682;2022-10-16T11:06:17;4.60;;;3.40;;
2161;SDS011;1087;50.226;8.682;2022-10-16T11:08:53;4.00;;;3.70;;
2161;SDS011;1087;50.226;8.682;2022-10-16T11:14:23;3.80;;;3.50;;
2161;SDS011;1087;50.226;8.682;2022-10-16T11:16:56;4.13;;;3.67;;
2161;SDS011;1087;50.226;8.682;2022-10-16T11:19:41;3.77;;;3.37;;
2161;SDS011;1087;50.226;8.682;2022-10-16T11:27:52;3.90;;;3.50;;
2161;SDS011;1087;50.226;8.682;2022-10-16T11:30:39;2.80;;;2.60;;
2161;SDS011;1087;50.226;8.682;2022-10-16T11:36:01;3.50;;;3.00;;
2161;SDS011;1087;50.226;8.682;2022-10-16T11:38:58;2.97;;;2.77;;
2161;SDS011;1087;50.226;8.682;2022-10-16T11:41:33;3.13;;;2.80;;
2161;SDS011;1087;50.226;8.682;2022-10-16T11:44:05;3.47;;;3.23;;
2161;SDS011;1087;50.226;8.682;2022-10-16T11:46:32;3.23;;;3.03;;
2161;SDS011;1087;50.226;8.682;2022-10-16T11:49:14;3.03;;;2.83;;
2161;SDS011;1087;50.226;8.682;2022-10-16T11:51:59;3.60;;;3.30;;
2161;SDS011;1087;50.226;8.682;2022-10-16T11:54:45;5.00;;;4.30;;
2161;SDS011;1087;50.226;8.682;2022-10-16T12:00:21;3.60;;;3.40;;
2161;SDS011;1087;50.226;8.682;2022-10-16T12:08:39;4.40;;;4.00;;
2161;SDS011;1087;50.226;8.682;2022-10-16T12:11:07;4.40;;;4.10;;
2161;SDS011;1087;50.226;8.682;2022-10-16T12:19:23;6.87;;;6.20;;
2161;SDS011;1087;50.226;8.682;2022-10-16T12:21:50;6.83;;;6.23;;
2161;SDS011;1087;50.226;8.682;2022-10-16T12:24:21;6.87;;;6.37;;
2161;SDS011;1087;50.226;8.682;2022-10-16T12:26:59;8.20;;;7.20;;
2161;SDS011;1087;50.226;8.682;2022-10-16T12:32:02;7.00;;;6.40;;
2161;SDS011;1087;50.226;8.682;2022-10-16T12:34:46;6.03;;;5.53;;
2161;SDS011;1087;50.226;8.682;2022-10-16T12:37:26;6.17;;;5.70;;
2161;SDS011;1087;50.226;8.682;2022-10-16T12:39:56;5.57;;;5.17;;
2161;SDS011;1087;50.226;8.682;2022-10-16T12:44:55;5.17;;;4.77;;
2161;SDS011;1087;50.226;8.682;2022-10-16T12:47:22;5.50;;;5.10;;
2161;SDS011;1087;50.226;8.682;2022-10-16T12:49:55;5.60;;;5.10;;
2161;SDS011;1087;50.226;8.682;2022-10-16T12:52:25;4.33;;;4.03;;
2161;SDS011;1087;50.226;8.682;2022-10-16T12:55:02;4.70;;;4.27;;
2161;SDS011;1087;50.226;8.682;2022-10-16T13:00:10;5.80;;;4.60;;
2161;SDS011;1087;50.226;8.682;2022-10-16T13:21:57;3.93;;;3.60;;
2161;SDS011;1087;50.226;8.682;2022-10-16T13:30:08;4.10;;;3.80;;
2161;SDS011;1087;50.226;8.682;2022-10-16T13:33:17;3.80;;;3.10;;
2161;SDS011;1087;50.226;8.682;2022-10-16T13:35:34;4.33;;;3.30;;
2161;SDS011;1087;50.226;8.682;2022-10-16T13:40:31;3.33;;;3.13;;
2161;SDS011;1087;50.226;8.682;2022-10-16T13:42:56;5.90;;;4.80;;
2161;SDS011;1087;50.226;8.682;2022-10-16T13:45:25;5.43;;;4.93;;
2161;SDS011;1087;50.226;8.682;2022-10-16T13:48:04;4.50;;;3.00;;
2161;SDS011;1087;50.226;8.682;2022-10-16T13:50:31;3.23;;;2.93;;
2161;SDS011;1087;50.226;8.682;2022-10-16T13:53:06;3.00;;;2.80;;
2161;SDS011;1087;50.226;8.682;2022-10-16T13:55:37;2.70;;;2.50;;
2161;SDS011;1087;50.226;8.682;2022-10-16T13:58:07;3.13;;;2.93;;
2161;SDS011;1087;50.226;8.682;2022-10-16T14:00:36;3.27;;;2.97;;
2161;SDS011;1087;50.226;8.682;2022-10-16T14:03:03;2.80;;;2.60;;
2161;SDS011;1087;50.226;8.682;2022-10-16T14:05:42;3.60;;;3.13;;
2161;SDS011;1087;50.226;8.682;2022-10-16T14:08:29;5.20;;;4.13;;
2161;SDS011;1087;50.226;8.682;2022-10-16T14:10:59;3.10;;;2.90;;
2161;SDS011;1087;50.226;8.682;2022-10-16T14:13:30;3.30;;;3.00;;
2161;SDS011;1087;50.226;8.682;2022-10-16T14:15:59;2.90;;;2.70;;
2161;SDS011;1087;50.226;8.682;2022-10-16T14:18:27;3.17;;;2.87;;
2161;SDS011;1087;50.226;8.682;2022-10-16T14:20:53;3.13;;;2.93;;
2161;SDS011;1087;50.226;8.682;2022-10-16T14:23:30;3.00;;;2.70;;
2161;SDS011;1087;50.226;8.682;2022-10-16T14:26:11;2.80;;;2.60;;
2161;SDS011;1087;50.226;8.682;2022-10-16T14:28:38;3.13;;;2.93;;
2161;SDS011;1087;50.226;8.682;2022-10-16T14:33:55;4.47;;;3.17;;
2161;SDS011;1087;50.226;8.682;2022-10-16T14:36:20;3.67;;;3.47;;
2161;SDS011;1087;50.226;8.682;2022-10-16T14:38:57;4.10;;;3.70;;
2161;SDS011;1087;50.226;8.682;2022-10-16T14:41:26;4.45;;;3.40;;
2161;SDS011;1087;50.226;8.682;2022-10-16T14:43:53;5.10;;;3.50;;
2161;SDS011;1087;50.226;8.682;2022-10-16T14:46:36;4.30;;;3.53;;
2161;SDS011;1087;50.226;8.682;2022-10-16T14:49:14;3.97;;;3.57;;
2161;SDS011;1087;50.226;8.682;2022-10-16T14:51:42;4.13;;;3.80;;
2161;SDS011;1087;50.226;8.682;2022-10-16T14:54:10;4.30;;;4.00;;
2161;SDS011;1087;50.226;8.682;2022-10-16T14:59:37;3.80;;;3.50;;
2161;SDS011;1087;50.226;8.682;2022-10-16T15:02:16;3.90;;;3.50;;
2161;SDS011;1087;50.226;8.682;2022-10-16T15:05:07;4.43;;;4.03;;
2161;SDS011;1087;50.226;8.682;2022-10-16T15:07:54;3.70;;;3.40;;
2161;SDS011;1087;50.226;8.682;2022-10-16T15:10:21;4.33;;;3.77;;
2161;SDS011;1087;50.226;8.682;2022-10-16T15:12:49;4.60;;;3.23;;
2161;SDS011;1087;50.226;8.682;2022-10-16T15:18:00;3.73;;;3.43;;
2161;SDS011;1087;50.226;8.682;2022-10-16T15:20:28;3.83;;;3.53;;
2161;SDS011;1087;50.226;8.682;2022-10-16T15:23:03;4.10;;;3.80;;
2161;SDS011;1087;50.226;8.682;2022-10-16T15:28:08;3.70;;;3.40;;
2161;SDS011;1087;50.226;8.682;2022-10-16T15:30:35;3.70;;;3.40;;
2161;SDS011;1087;50.226;8.682;2022-10-16T15:33:02;3.50;;;3.20;;
2161;SDS011;1087;50.226;8.682;2022-10-16T15:35:28;4.50;;;4.10;;
2161;SDS011;1087;50.226;8.682;2022-10-16T15:37:54;4.13;;;3.83;;
2161;SDS011;1087;50.226;8.682;2022-10-16T15:40:20;5.60;;;3.63;;
2161;SDS011;1087;50.226;8.682;2022-10-16T15:42:47;4.43;;;4.03;;
2161;SDS011;1087;50.226;8.682;2022-10-16T15:45:14;5.63;;;5.13;;
2161;SDS011;1087;50.226;8.682;2022-10-16T15:47:40;3.77;;;3.47;;
2161;SDS011;1087;50.226;8.682;2022-10-16T15:50:06;5.13;;;4.43;;
2161;SDS011;1087;50.226;8.682;2022-10-16T15:52:34;4.83;;;4.43;;
2161;SDS011;1087;50.226;8.682;2022-10-16T15:54:59;87.07;;;73.70;;
2161;SDS011;1087;50.226;8.682;2022-10-16T15:57:27;219.77;;;173.00;;
2161;SDS011;1087;50.226;8.682;2022-10-16T15:59:53;109.50;;;87.27;;
2161;SDS011;1087;50.226;8.682;2022-10-16T16:02:19;11.03;;;9.93;;
2161;SDS011;1087;50.226;8.682;2022-10-16T16:04:44;11.23;;;9.93;;
2161;SDS011;1087;50.226;8.682;2022-10-16T16:07:10;9.63;;;8.70;;
2161;SDS011;1087;50.226;8.682;2022-10-16T16:09:35;8.80;;;7.90;;
2161;SDS011;1087;50.226;8.682;2022-10-16T16:12:01;9.30;;;8.40;;
2161;SDS011;1087;50.226;8.682;2022-10-16T16:14:27;7.10;;;6.40;;
2161;SDS011;1087;50.226;8.682;2022-10-16T16:16:53;8.13;;;6.60;;
2161;SDS011;1087;50.226;8.682;2022-10-16T16:19:19;5.90;;;5.33;;
2161;SDS011;1087;50.226;8.682;2022-10-16T16:21:48;5.40;;;4.97;;
2161;SDS011;1087;50.226;8.682;2022-10-16T16:24:14;6.00;;;5.27;;
2161;SDS011;1087;50.226;8.682;2022-10-16T16:26:40;5.87;;;5.37;;
2161;SDS011;1087;50.226;8.682;2022-10-16T16:29:08;5.10;;;4.70;;
2161;SDS011;1087;50.226;8.682;2022-10-16T16:31:40;5.70;;;5.20;;
2161;SDS011;1087;50.226;8.682;2022-10-16T16:34:06;6.13;;;5.63;;
2161;SDS011;1087;50.226;8.682;2022-10-16T16:36:32;7.17;;;6.57;;
2161;SDS011;1087;50.226;8.682;2022-10-16T16:38:59;7.10;;;6.60;;
2161;SDS011;1087;50.226;8.682;2022-10-16T16:41:25;6.40;;;5.90;;
2161;SDS011;1087;50.226;8.682;2022-10-16T16:43:52;6.57;;;5.97;;
2161;SDS011;1087;50.226;8.682;2022-10-16T16:46:18;7.13;;;6.53;;
2161;SDS011;1087;50.226;8.682;2022-10-16T16:48:45;7.30;;;6.70;;
2161;SDS011;1087;50.226;8.682;2022-10-16T16:51:11;6.67;;;6.13;;
2161;SDS011;1087;50.226;8.682;2022-10-16T16:53:45;6.30;;;5.80;;
2161;SDS011;1087;50.226;8.682;2022-10-16T16:56:12;7.83;;;7.03;;
2161;SDS011;1087;50.226;8.682;2022-10-16T16:58:38;7.73;;;7.07;;
2161;SDS011;1087;50.226;8.682;2022-10-16T17:01:04;7.90;;;5.97;;
2161;SDS011;1087;50.226;8.682;2022-10-16T17:03:30;7.93;;;7.13;;
2161;SDS011;1087;50.226;8.682;2022-10-16T17:05:58;6.90;;;6.20;;
2161;SDS011;1087;50.226;8.682;2022-10-16T17:08:26;9.03;;;7.80;;
2161;SDS011;1087;50.226;8.682;2022-10-16T17:10:53;9.77;;;8.87;;
2161;SDS011;1087;50.226;8.682;2022-10-16T17:13:26;10.07;;;9.20;;
2161;SDS011;1087;50.226;8.682;2022-10-16T17:15:54;9.93;;;9.07;;
2161;SDS011;1087;50.226;8.682;2022-10-16T17:18:20;8.70;;;7.80;;
2161;SDS011;1087;50.226;8.682;2022-10-16T17:20:47;7.83;;;7.20;;
2161;SDS011;1087;50.226;8.682;2022-10-16T17:23:13;8.97;;;8.07;;
2161;SDS011;1087;50.226;8.682;2022-10-16T17:25:40;7.70;;;7.00;;
2161;SDS011;1087;50.226;8.682;2022-10-16T17:28:06;17.23;;;15.63;;
2161;SDS011;1087;50.226;8.682;2022-10-16T17:30:33;14.77;;;13.37;;
2161;SDS011;1087;50.226;8.682;2022-10-16T17:32:59;13.33;;;12.03;;
2161;SDS011;1087;50.226;8.682;2022-10-16T17:35:26;13.53;;;12.13;;
2161;SDS011;1087;50.226;8.682;2022-10-16T17:37:52;10.90;;;9.80;;
2161;SDS011;1087;50.226;8.682;2022-10-16T17:40:18;11.83;;;10.83;;